Аэропорт: Днепропетровск. Днепропетровск

ICAO: UKDD

METAR:
2021-07-28 13:30:00
UKDD 281330Z 21003MPS 9999 FEW///CB 30/18 Q1014 R08/090070 NOSIG
METAR:
2021-07-28 11:08:00
TAF UKDD 281108Z 2812/2912 2005G10MPS 9999 SCT030 TX32/2812Z TN18/2902Z PROB40 TEMPO 2812/2818 2100 -TSRA BKN020CB TEMPO 2821/2912 VRB09G14MPS 2100 -TSRA BKN020CB